NCAR-RAP Real-Time Weather Data

Output produced by METARs form (08 May 2021  01:59 UTC)
found at http://weather.rap.ucar.edu/surface/
 
KPAH 080053Z 23004KT 10SM CLR 18/04 A2999 RMK AO2 SLP154 T01780039
KPAH 072353Z 23008G18KT 10SM FEW110 20/03 A3001 RMK AO2 SLP160 T02000028 10211 20194 58017
KPAH 072253Z 24008G19KT 10SM SCT100 21/03 A3003 RMK AO2 SLP166 T02060033
KPAH 072153Z 23011KT 10SM CLR 21/03 A3004 RMK AO2 SLP173 T02060033
KPAH 072053Z 25015G21KT 10SM CLR 21/03 A3006 RMK AO2 SLP177 T02110033 58025
KPAH 071953Z 26009KT 10SM CLR 21/04 A3009 RMK AO2 SLP187 T02110039
KPAH 071853Z 29008G18KT 260V320 10SM CLR 21/03 A3011 RMK AO2 SLP195 T02060033
KPAH 071753Z 25009G23KT 10SM CLR 20/05 A3013 RMK AO2 SLP202 T02000050 10206 20094 58008
KPAH 071653Z 26013G17KT 10SM CLR 19/04 A3015 RMK AO2 SLP209 T01940039
KPAH 071553Z 31011G18KT 10SM CLR 18/04 A3016 RMK AO2 SLP210 T01830039
KPAH 071453Z 25010KT 10SM CLR 17/05 A3016 RMK AO2 SLP210 T01670050 51004
KPAH 071353Z 28007KT 10SM CLR 14/06 A3015 RMK AO2 SLP210 T01440056
KPAH 071253Z 25008KT 10SM CLR 12/06 A3016 RMK AO2 SLP211 T01170056
KPAH 071153Z 24005KT 10SM CLR 09/06 A3014 RMK AO2 SLP207 70038 T00940056 10094 20072 53010